Time;durP1;ratioP1;P1;durP2;ratioP2;P2;SDS_P1;SDS_P2;PMS_P1;PMS_P2;Temp;Humidity;BMP_temperature;BMP_pressure;BME280_temperature;BME280_humidity;BME280_pressure;Samples;Min_cycle;Max_cycle;Signal;HPM_P1;HPM_P2
2023/06/24 00:00:09;;;;;;;0.10;0.10;;;19.10;99.90;;;;;;5038875;28;20185;-81
2023/06/24 00:02:36;;;;;;;0.10;0.10;;;19.20;99.90;;;;;;5040976;28;20212;-81
2023/06/24 00:05:03;;;;;;;0.10;0.10;;;19.20;99.90;;;;;;5043762;28;20217;-82
2023/06/24 00:07:29;;;;;;;0.10;0.10;;;19.30;99.90;;;;;;5040012;28;20816;-80
2023/06/24 00:09:55;;;;;;;0.10;0.10;;;19.30;99.90;;;;;;5042880;28;20198;-80
2023/06/24 00:12:20;;;;;;;0.10;0.10;;;19.40;99.90;;;;;;5040277;28;20197;-80
2023/06/24 00:14:47;;;;;;;0.10;0.10;;;19.30;99.90;;;;;;5041987;28;20181;-80
2023/06/24 00:17:13;;;;;;;0.10;0.10;;;19.20;99.90;;;;;;5040793;28;20190;-80
2023/06/24 00:19:38;;;;;;;0.10;0.10;;;19.30;99.90;;;;;;5042044;28;20255;-80
2023/06/24 00:22:06;;;;;;;0.10;0.10;;;19.30;99.90;;;;;;5039191;28;20201;-80
2023/06/24 00:24:31;;;;;;;0.10;0.10;;;19.40;99.90;;;;;;5040896;28;20193;-80
2023/06/24 00:26:57;;;;;;;0.10;0.10;;;19.40;99.90;;;;;;5040748;28;20177;-80
2023/06/24 00:29:22;;;;;;;0.10;0.10;;;19.30;99.90;;;;;;5041853;28;20185;-80
2023/06/24 00:31:48;;;;;;;0.10;0.10;;;19.30;99.90;;;;;;5039207;28;20699;-80
2023/06/24 00:34:14;;;;;;;0.10;0.10;;;19.40;99.90;;;;;;5041327;28;20185;-80
2023/06/24 00:36:40;;;;;;;0.10;0.10;;;19.30;99.90;;;;;;5040660;28;20194;-80
2023/06/24 00:39:06;;;;;;;0.10;0.10;;;19.40;99.90;;;;;;5041109;28;20227;-80
2023/06/24 00:41:33;;;;;;;0.10;0.10;;;19.30;99.90;;;;;;5040060;28;20705;-80
2023/06/24 00:43:58;;;;;;;0.10;0.10;;;19.10;99.90;;;;;;5040470;28;20534;-80
2023/06/24 00:46:25;;;;;;;0.10;0.10;;;19.00;99.90;;;;;;5039713;28;20197;-80
2023/06/24 00:48:52;;;;;;;0.10;0.10;;;18.80;99.90;;;;;;5040641;28;20188;-80
2023/06/24 00:51:20;;;;;;;0.10;0.10;;;18.90;99.90;;;;;;5038291;28;20589;-80
2023/06/24 00:53:47;;;;;;;0.10;0.10;;;18.90;99.90;;;;;;5041755;28;20185;-80
2023/06/24 00:56:14;;;;;;;0.10;0.10;;;19.00;99.90;;;;;;5041134;28;20634;-80
2023/06/24 00:58:42;;;;;;;0.10;0.10;;;19.10;99.90;;;;;;5042560;28;20196;-79
2023/06/24 01:01:08;;;;;;;0.10;0.10;;;19.20;99.90;;;;;;5038608;28;20207;-80
2023/06/24 01:03:34;;;;;;;0.10;0.10;;;19.30;99.90;;;;;;5041494;28;20606;-80
2023/06/24 01:06:00;;;;;;;0.10;0.10;;;19.30;99.90;;;;;;5039617;28;20192;-80
2023/06/24 01:08:26;;;;;;;0.10;0.10;;;19.30;99.90;;;;;;5040764;28;20235;-81
2023/06/24 01:10:51;;;;;;;0.10;0.10;;;19.40;99.90;;;;;;5040144;28;20577;-80
2023/06/24 01:13:18;;;;;;;0.10;0.10;;;19.40;99.90;;;;;;5040281;28;20182;-80
2023/06/24 01:15:44;;;;;;;0.10;0.10;;;19.40;99.90;;;;;;5040914;28;20179;-80
2023/06/24 01:18:33;;;;;;;0.10;0.10;;;19.40;99.90;;;;;;5044457;28;20174;-80
2023/06/24 01:21:09;;;;;;;0.10;0.10;;;19.40;99.90;;;;;;5045361;28;20212;-80
2023/06/24 01:23:54;;;;;;;0.10;0.10;;;19.00;99.90;;;;;;5044869;28;20183;-80
2023/06/24 01:26:48;;;;;;;0.10;0.10;;;18.50;99.90;;;;;;5042872;28;20194;-80
2023/06/24 01:29:44;;;;;;;0.10;0.10;;;18.30;99.90;;;;;;5045719;28;20186;-80
2023/06/24 01:32:16;;;;;;;0.10;0.10;;;18.20;99.90;;;;;;5044070;28;20571;-80
2023/06/24 01:34:57;;;;;;;0.10;0.10;;;18.00;99.90;;;;;;5044166;28;20178;-80
2023/06/24 01:37:31;;;;;;;0.10;0.10;;;18.10;99.90;;;;;;5044408;28;20315;-80
2023/06/24 01:40:15;;;;;;;0.10;0.10;;;18.20;99.90;;;;;;5045474;28;20274;-80
2023/06/24 01:42:43;;;;;;;0.10;0.10;;;18.30;99.90;;;;;;5042196;28;20205;-81
2023/06/24 01:45:12;;;;;;;0.10;0.10;;;18.20;99.90;;;;;;5042658;28;20261;-79
2023/06/24 01:47:42;;;;;;;0.10;0.10;;;18.00;99.90;;;;;;5041490;28;20186;-80
2023/06/24 01:50:10;;;;;;;0.10;0.10;;;17.90;99.90;;;;;;5043963;28;20270;-80
2023/06/24 01:52:37;;;;;;;0.10;0.10;;;17.80;99.90;;;;;;5042497;28;20209;-80
2023/06/24 01:55:06;;;;;;;0.10;0.10;;;17.60;99.90;;;;;;5044539;28;20263;-80
2023/06/24 01:57:34;;;;;;;0.10;0.10;;;17.60;99.90;;;;;;5044624;28;20200;-80
2023/06/24 02:00:01;;;;;;;0.10;0.10;;;17.60;99.90;;;;;;5043119;28;20193;-81
2023/06/24 02:02:29;;;;;;;0.10;0.10;;;17.60;99.90;;;;;;5044132;28;20210;-80
2023/06/24 02:04:57;;;;;;;0.10;0.10;;;17.50;99.90;;;;;;5043163;28;20198;-80
2023/06/24 02:07:25;;;;;;;0.10;0.10;;;17.30;99.90;;;;;;5043265;28;20211;-80
2023/06/24 02:09:51;;;;;;;0.10;0.10;;;17.20;99.90;;;;;;5042747;28;20289;-80
2023/06/24 02:12:18;;;;;;;0.10;0.10;;;17.10;99.90;;;;;;5043228;28;20209;-80
2023/06/24 02:14:43;;;;;;;0.10;0.10;;;17.00;99.90;;;;;;5040604;28;20190;-80
2023/06/24 02:17:12;;;;;;;0.10;0.10;;;17.00;99.90;;;;;;5042892;28;20550;-80
2023/06/24 02:19:38;;;;;;;0.10;0.10;;;17.00;99.90;;;;;;5044201;28;20182;-80
2023/06/24 02:22:09;;;;;;;0.10;0.10;;;17.10;99.90;;;;;;5042572;28;20206;-80
2023/06/24 02:24:36;;;;;;;0.10;0.10;;;17.30;99.90;;;;;;5043336;28;20179;-80
2023/06/24 02:27:03;;;;;;;0.10;0.10;;;17.50;99.90;;;;;;5042337;28;20177;-80
2023/06/24 02:29:30;;;;;;;0.10;0.10;;;17.70;99.90;;;;;;5042665;28;20317;-80
2023/06/24 02:31:56;;;;;;;0.10;0.10;;;17.80;99.90;;;;;;5042501;28;20752;-80
2023/06/24 02:34:23;;;;;;;0.10;0.10;;;17.80;99.90;;;;;;5042900;28;20214;-80
2023/06/24 02:36:49;;;;;;;0.10;0.10;;;17.80;99.90;;;;;;5043778;28;20308;-80
2023/06/24 02:39:15;;;;;;;0.10;0.10;;;17.70;99.90;;;;;;5045235;28;21174;-80
2023/06/24 02:41:41;;;;;;;0.10;0.10;;;17.50;99.90;;;;;;5046456;28;20214;-80
2023/06/24 02:44:06;;;;;;;0.10;0.10;;;17.60;99.90;;;;;;5047915;28;20181;-80
2023/06/24 02:46:34;;;;;;;0.10;0.10;;;17.80;99.90;;;;;;5042036;28;20186;-81
2023/06/24 02:49:01;;;;;;;0.10;0.10;;;17.80;99.90;;;;;;5050533;28;20191;-80
2023/06/24 02:51:27;;;;;;;0.10;0.10;;;17.80;99.90;;;;;;5048584;28;20233;-80
2023/06/24 02:53:52;;;;;;;0.10;0.10;;;17.80;99.90;;;;;;5052006;28;20188;-80
2023/06/24 02:56:20;;;;;;;0.10;0.10;;;17.50;99.90;;;;;;5050062;28;20232;-80
2023/06/24 02:58:47;;;;;;;0.10;0.10;;;17.30;99.90;;;;;;5048266;28;20317;-79
2023/06/24 03:01:14;;;;;;;0.10;0.10;;;17.10;99.90;;;;;;5040983;28;20546;-80
2023/06/24 03:03:41;;;;;;;0.10;0.10;;;17.30;99.90;;;;;;5043831;28;20215;-80
2023/06/24 03:06:07;;;;;;;0.10;0.10;;;17.40;99.90;;;;;;5043162;28;20299;-80
2023/06/24 03:08:33;;;;;;;0.10;0.10;;;17.40;99.90;;;;;;5042982;28;20275;-80
2023/06/24 03:10:58;;;;;;;0.10;0.10;;;17.50;99.90;;;;;;5043446;28;20213;-80
2023/06/24 03:13:24;;;;;;;0.10;0.10;;;17.50;99.90;;;;;;5044281;28;20601;-80
2023/06/24 03:15:50;;;;;;;0.10;0.10;;;17.60;99.90;;;;;;5042817;28;20190;-80
2023/06/24 03:18:17;;;;;;;0.10;0.10;;;17.70;99.90;;;;;;5040971;28;20238;-80
2023/06/24 03:20:43;;;;;;;0.10;0.10;;;17.80;99.90;;;;;;5041367;28;20210;-80
2023/06/24 03:23:09;;;;;;;0.10;0.10;;;17.80;99.90;;;;;;5041525;28;20206;-80
2023/06/24 03:25:35;;;;;;;0.10;0.10;;;17.90;99.90;;;;;;5039039;28;20729;-80
2023/06/24 03:28:03;;;;;;;0.10;0.10;;;18.00;99.90;;;;;;5043915;28;20239;-80
2023/06/24 03:30:29;;;;;;;0.10;0.10;;;17.90;99.90;;;;;;5040607;28;20205;-80
2023/06/24 03:32:55;;;;;;;0.10;0.10;;;17.90;99.90;;;;;;5040794;28;20191;-80
2023/06/24 03:35:20;;;;;;;0.10;0.10;;;17.90;99.90;;;;;;5043732;28;20204;-80
2023/06/24 03:37:46;;;;;;;0.10;0.10;;;17.70;99.90;;;;;;5041020;28;20190;-80
2023/06/24 03:40:12;;;;;;;0.10;0.10;;;18.10;99.90;;;;;;5044121;28;20185;-80
2023/06/24 03:42:37;;;;;;;0.10;0.10;;;18.60;99.90;;;;;;5041794;28;20209;-80
2023/06/24 03:45:03;;;;;;;0.10;0.10;;;18.70;99.90;;;;;;5042923;28;20192;-80
2023/06/24 03:47:29;;;;;;;0.10;0.10;;;18.90;99.90;;;;;;5041441;28;20243;-80
2023/06/24 03:49:54;;;;;;;0.10;0.10;;;19.10;99.90;;;;;;5041978;28;20201;-81
2023/06/24 03:52:20;;;;;;;0.10;0.10;;;19.30;99.90;;;;;;5039592;28;20296;-79
2023/06/24 03:54:46;;;;;;;0.10;0.10;;;19.40;99.90;;;;;;5039292;28;20268;-79
2023/06/24 03:57:12;;;;;;;0.10;0.10;;;19.70;99.90;;;;;;5040789;28;20238;-79
2023/06/24 03:59:37;;;;;;;0.10;0.10;;;19.50;99.90;;;;;;5042488;28;20277;-78
2023/06/24 04:02:07;;;;;;;0.10;0.10;;;19.70;99.90;;;;;;5041299;28;21029;-79
2023/06/24 04:04:36;;;;;;;0.10;0.10;;;20.30;99.90;;;;;;5043359;28;20235;-79
2023/06/24 04:07:02;;;;;;;0.10;0.10;;;20.70;99.90;;;;;;5039733;28;20635;-80
2023/06/24 04:09:29;;;;;;;0.10;0.10;;;21.30;99.90;;;;;;5042366;28;20268;-85
2023/06/24 04:11:55;;;;;;;0.10;0.10;;;22.00;99.90;;;;;;5039050;28;20544;-82
2023/06/24 04:14:20;;;;;;;0.10;0.10;;;22.60;99.90;;;;;;5041388;28;21998;-83
2023/06/24 04:16:46;;;;;;;0.10;0.10;;;23.20;99.90;;;;;;5038593;28;20193;-83
2023/06/24 04:19:11;;;;;;;0.10;0.10;;;23.60;99.90;;;;;;5039711;28;20185;-81
2023/06/24 04:21:37;;;;;;;0.10;0.10;;;24.10;99.90;;;;;;5037734;28;20209;-80
2023/06/24 04:24:03;;;;;;;0.10;0.10;;;24.40;99.90;;;;;;5039254;28;20221;-80
2023/06/24 04:26:29;;;;;;;0.10;0.10;;;24.60;99.90;;;;;;5033020;28;20190;-80
2023/06/24 04:28:54;;;;;;;0.10;0.10;;;24.50;99.90;;;;;;5040882;28;20251;-80
2023/06/24 04:31:20;;;;;;;0.10;0.10;;;23.90;99.90;;;;;;5038471;28;20225;-80
2023/06/24 04:33:45;;;;;;;0.10;0.10;;;23.50;99.90;;;;;;5042715;28;20186;-80
2023/06/24 04:36:11;;;;;;;0.10;0.10;;;23.00;99.90;;;;;;5039652;28;20670;-81
2023/06/24 04:38:37;;;;;;;0.10;0.10;;;22.70;99.90;;;;;;5040473;28;20213;-80
2023/06/24 04:41:03;;;;;;;0.10;0.10;;;22.50;99.90;;;;;;5037554;28;20213;-80
2023/06/24 04:43:29;;;;;;;0.10;0.10;;;22.30;99.90;;;;;;5040698;28;20212;-80
2023/06/24 04:45:57;;;;;;;0.10;0.10;;;22.00;99.90;;;;;;5040618;28;20647;-80
2023/06/24 04:48:24;;;;;;;0.10;0.10;;;21.80;99.90;;;;;;5040223;28;20185;-80
2023/06/24 04:50:49;;;;;;;0.10;0.10;;;21.70;99.90;;;;;;5038719;28;20221;-81
2023/06/24 04:53:15;;;;;;;0.10;0.10;;;21.50;99.90;;;;;;5039297;28;20239;-80
2023/06/24 04:55:40;;;;;;;0.10;0.10;;;21.50;99.90;;;;;;5040275;28;20181;-80
2023/06/24 04:58:06;;;;;;;0.10;0.10;;;21.40;99.90;;;;;;5040165;28;20578;-81
2023/06/24 05:00:32;;;;;;;0.10;0.10;;;21.40;99.90;;;;;;5041252;28;20231;-80
2023/06/24 05:02:57;;;;;;;0.10;0.10;;;21.30;99.90;;;;;;5037981;28;20264;-80
2023/06/24 05:05:23;;;;;;;0.10;0.10;;;21.10;99.90;;;;;;5041697;28;20213;-80
2023/06/24 05:07:49;;;;;;;0.10;0.10;;;21.00;99.90;;;;;;5039759;28;20260;-80
2023/06/24 05:10:15;;;;;;;0.10;0.10;;;20.90;99.90;;;;;;5035949;28;20210;-81
2023/06/24 05:12:41;;;;;;;0.10;0.10;;;20.90;99.90;;;;;;5037538;28;20202;-82
2023/06/24 05:15:07;;;;;;;0.10;0.10;;;20.70;99.90;;;;;;5041664;28;20247;-81
2023/06/24 05:17:33;;;;;;;0.10;0.10;;;20.60;99.90;;;;;;5040102;28;20233;-81
2023/06/24 05:19:58;;;;;;;0.10;0.10;;;20.60;99.90;;;;;;5041470;28;20181;-81
2023/06/24 05:22:24;;;;;;;0.10;0.10;;;20.50;99.90;;;;;;5039208;28;20206;-80
2023/06/24 05:24:49;;;;;;;0.10;0.10;;;20.40;99.90;;;;;;5040628;28;20181;-80
2023/06/24 05:27:15;;;;;;;0.10;0.10;;;20.50;99.90;;;;;;5035826;28;20684;-80
2023/06/24 05:29:41;;;;;;;0.10;0.10;;;20.40;99.90;;;;;;5036296;28;20185;-80
2023/06/24 05:32:06;;;;;;;0.10;0.10;;;20.50;99.90;;;;;;5041498;28;20202;-82
2023/06/24 05:34:33;;;;;;;0.10;0.10;;;20.40;99.90;;;;;;5038769;28;20679;-83
2023/06/24 05:36:59;;;;;;;0.10;0.10;;;20.50;99.90;;;;;;5040999;28;20189;-80
2023/06/24 05:39:24;;;;;;;0.10;0.10;;;20.60;99.90;;;;;;5040574;28;20593;-80
2023/06/24 05:41:50;;;;;;;0.10;0.10;;;20.80;99.90;;;;;;5036072;28;20887;-81
2023/06/24 05:44:17;;;;;;;0.10;0.10;;;20.90;99.90;;;;;;5039055;28;20209;-80
2023/06/24 05:46:46;;;;;;;0.10;0.10;;;21.00;99.90;;;;;;5042546;28;20335;-81
2023/06/24 05:49:11;;;;;;;0.10;0.10;;;21.20;99.90;;;;;;5040091;28;20600;-80
2023/06/24 05:51:37;;;;;;;0.10;0.10;;;21.30;99.90;;;;;;5040397;28;20218;-81
2023/06/24 05:54:03;;;;;;;0.10;0.10;;;21.40;99.90;;;;;;5038588;28;20259;-82
2023/06/24 05:56:29;;;;;;;0.10;0.10;;;21.50;99.90;;;;;;5039860;28;20193;-81
2023/06/24 05:58:54;;;;;;;0.10;0.10;;;21.60;99.90;;;;;;5041639;28;20182;-82
2023/06/24 06:01:20;;;;;;;0.10;0.10;;;21.70;99.90;;;;;;5041693;28;20659;-82
2023/06/24 06:03:45;;;;;;;0.10;0.10;;;21.80;99.90;;;;;;5042776;28;20226;-82
2023/06/24 06:06:11;;;;;;;0.10;0.10;;;21.80;99.90;;;;;;5045852;28;20201;-82
2023/06/24 06:08:37;;;;;;;0.10;0.10;;;22.00;99.90;;;;;;5036807;28;20190;-81
2023/06/24 06:11:02;;;;;;;0.10;0.10;;;22.10;99.90;;;;;;5041426;28;20213;-81
2023/06/24 06:13:29;;;;;;;0.10;0.10;;;22.20;99.90;;;;;;5039668;28;20264;-80
2023/06/24 06:15:55;;;;;;;0.10;0.10;;;22.30;99.90;;;;;;5033275;28;20297;-81
2023/06/24 06:18:20;;;;;;;0.10;0.10;;;22.40;99.90;;;;;;5042319;28;20265;-81
2023/06/24 06:20:46;;;;;;;0.10;0.10;;;22.60;99.90;;;;;;5036126;28;20258;-81
2023/06/24 06:23:11;;;;;;;0.10;0.10;;;22.60;99.90;;;;;;5044196;28;20187;-81
2023/06/24 06:25:38;;;;;;;0.10;0.10;;;22.80;99.90;;;;;;5039349;28;20189;-81
2023/06/24 06:28:04;;;;;;;0.10;0.10;;;22.80;99.90;;;;;;5042520;28;20196;-83
2023/06/24 06:30:30;;;;;;;0.10;0.10;;;22.80;99.90;;;;;;5040821;28;20225;-81
2023/06/24 06:32:55;;;;;;;0.10;0.10;;;22.80;99.90;;;;;;5038997;28;20213;-81
2023/06/24 06:35:21;;;;;;;0.10;0.10;;;22.80;99.90;;;;;;5034477;28;20235;-81
2023/06/24 06:37:52;;;;;;;0.10;0.10;;;23.00;99.90;;;;;;5041478;28;20805;-82
2023/06/24 06:40:18;;;;;;;0.10;0.10;;;22.70;99.90;;;;;;5043898;28;20190;-81
2023/06/24 06:42:43;;;;;;;0.10;0.10;;;22.80;99.90;;;;;;5042778;28;20214;-82
2023/06/24 06:45:09;;;;;;;0.10;0.10;;;23.00;99.90;;;;;;5037157;28;20594;-82
2023/06/24 06:47:35;;;;;;;0.10;0.10;;;23.00;99.90;;;;;;5040905;28;21115;-82
2023/06/24 06:50:00;;;;;;;0.10;0.10;;;23.00;99.90;;;;;;5042808;28;20197;-81
2023/06/24 06:52:27;;;;;;;0.10;0.10;;;22.70;99.90;;;;;;5037740;28;20202;-84
2023/06/24 06:54:53;;;;;;;0.10;0.10;;;22.80;99.90;;;;;;5041181;28;20185;-81
2023/06/24 06:57:18;;;;;;;0.10;0.10;;;23.10;99.90;;;;;;5035077;28;20189;-82
2023/06/24 06:59:44;;;;;;;0.10;0.10;;;23.10;99.90;;;;;;5039456;28;20181;-81
2023/06/24 07:02:10;;;;;;;0.10;0.10;;;23.30;99.90;;;;;;5042589;28;20248;-82
2023/06/24 07:04:35;;;;;;;0.10;0.10;;;23.40;99.90;;;;;;5038339;28;20229;-82
2023/06/24 07:07:01;;;;;;;0.10;0.10;;;23.40;99.90;;;;;;5034674;28;20186;-83
2023/06/24 07:09:26;;;;;;;0.10;0.10;;;23.40;99.90;;;;;;5038206;28;20186;-83
2023/06/24 07:11:52;;;;;;;0.10;0.10;;;23.50;99.90;;;;;;5037551;28;20340;-83
2023/06/24 07:14:17;;;;;;;0.10;0.10;;;23.60;99.90;;;;;;5041820;28;20228;-81
2023/06/24 07:16:43;;;;;;;0.10;0.10;;;23.80;99.90;;;;;;5040500;28;20190;-81
2023/06/24 07:19:08;;;;;;;0.10;0.10;;;24.00;99.90;;;;;;5044081;28;20690;-81
2023/06/24 07:21:34;;;;;;;0.10;0.10;;;24.20;99.90;;;;;;5040134;28;20205;-81
2023/06/24 07:23:59;;;;;;;0.10;0.10;;;24.30;99.90;;;;;;5040898;28;20248;-81
2023/06/24 07:26:28;;;;;;;0.10;0.10;;;23.90;99.90;;;;;;5038113;28;20280;-82
2023/06/24 07:28:55;;;;;;;0.10;0.10;;;23.60;99.90;;;;;;5040747;28;20634;-81
2023/06/24 07:31:21;;;;;;;0.10;0.10;;;24.00;99.90;;;;;;5039364;28;20205;-81
2023/06/24 07:33:46;;;;;;;0.10;0.10;;;24.40;99.90;;;;;;5038736;28;20190;-81
2023/06/24 07:36:13;;;;;;;0.10;0.10;;;24.70;99.90;;;;;;5036777;28;20185;-81
2023/06/24 07:38:39;;;;;;;0.10;0.10;;;25.00;99.90;;;;;;5038520;28;20226;-81
2023/06/24 07:41:04;;;;;;;0.10;0.10;;;25.30;99.90;;;;;;5036944;28;20229;-81
2023/06/24 07:43:30;;;;;;;0.10;0.10;;;25.10;99.90;;;;;;5035568;28;20186;-81
2023/06/24 07:45:55;;;;;;;0.10;0.10;;;25.20;99.90;;;;;;5034252;28;20303;-81
2023/06/24 07:48:21;;;;;;;0.10;0.10;;;25.20;99.90;;;;;;5056887;28;20196;-81
2023/06/24 07:50:47;;;;;;;0.10;0.10;;;25.30;99.90;;;;;;5038951;28;20213;-82
2023/06/24 07:53:12;;;;;;;0.10;0.10;;;25.30;99.90;;;;;;5039851;28;20688;-82
2023/06/24 07:55:38;;;;;;;0.10;0.10;;;25.40;99.90;;;;;;5037405;28;20178;-82
2023/06/24 07:58:04;;;;;;;0.10;0.10;;;25.60;99.90;;;;;;5040264;28;20268;-81
2023/06/24 08:00:30;;;;;;;0.10;0.10;;;25.10;99.90;;;;;;5042078;28;20202;-81
2023/06/24 08:02:58;;;;;;;0.10;0.10;;;25.40;99.90;;;;;;5038981;28;20277;-81
2023/06/24 08:05:23;;;;;;;0.10;0.10;;;25.70;99.90;;;;;;5040759;28;20233;-81
2023/06/24 08:07:51;;;;;;;0.10;0.10;;;25.60;99.90;;;;;;5043869;28;20235;-82
2023/06/24 08:10:17;;;;;;;0.10;0.10;;;25.70;99.90;;;;;;5038372;28;20198;-82
2023/06/24 08:12:43;;;;;;;0.10;0.10;;;25.50;99.90;;;;;;5038391;28;20230;-82
2023/06/24 08:15:09;;;;;;;0.10;0.10;;;25.70;99.90;;;;;;5042386;28;20188;-82
2023/06/24 08:17:35;;;;;;;0.10;0.10;;;25.70;99.90;;;;;;5039985;28;20200;-82
2023/06/24 08:20:04;;;;;;;0.10;0.10;;;25.70;99.90;;;;;;5042757;28;20554;-82
2023/06/24 08:22:30;;;;;;;0.10;0.10;;;25.90;99.90;;;;;;5039143;28;20228;-81
2023/06/24 08:24:55;;;;;;;0.10;0.10;;;26.00;99.90;;;;;;5038318;28;20277;-82
2023/06/24 08:27:21;;;;;;;0.10;0.10;;;26.10;99.90;;;;;;5038453;28;20943;-82
2023/06/24 08:29:46;;;;;;;0.10;0.10;;;26.00;99.90;;;;;;5037805;28;20690;-82
2023/06/24 08:32:12;;;;;;;0.10;0.10;;;26.10;99.90;;;;;;5037970;28;20215;-82
2023/06/24 08:34:37;;;;;;;0.10;0.10;;;26.30;99.90;;;;;;5037872;28;20198;-82
2023/06/24 08:37:03;;;;;;;0.10;0.10;;;26.40;99.90;;;;;;5038442;28;20206;-82
2023/06/24 08:39:29;;;;;;;0.10;0.10;;;26.50;99.90;;;;;;5038513;28;20190;-81
2023/06/24 08:41:54;;;;;;;0.10;0.10;;;26.70;99.90;;;;;;5037308;28;20213;-81
2023/06/24 08:44:20;;;;;;;0.10;0.10;;;26.80;99.90;;;;;;5036577;28;20193;-82
2023/06/24 08:46:46;;;;;;;0.10;0.10;;;26.90;99.90;;;;;;5039085;28;20194;-82
2023/06/24 08:49:30;;;;;;;0.10;0.10;;;27.10;99.90;;;;;;5040009;28;20182;-82
2023/06/24 08:52:10;;;;;;;0.10;0.10;;;27.30;99.90;;;;;;5037756;28;20247;-82
2023/06/24 08:54:36;;;;;;;0.10;0.10;;;27.40;99.90;;;;;;5035820;28;20204;-82
2023/06/24 08:57:05;;;;;;;0.10;0.10;;;27.40;99.90;;;;;;5037507;28;20189;-82
2023/06/24 08:59:31;;;;;;;0.10;0.10;;;26.70;99.90;;;;;;5040613;28;21279;-82
2023/06/24 09:01:56;;;;;;;0.10;0.10;;;27.00;99.90;;;;;;5034831;28;20202;-82
2023/06/24 09:04:22;;;;;;;0.10;0.10;;;27.30;99.90;;;;;;5038879;28;20177;-81
2023/06/24 09:06:48;;;;;;;0.10;0.10;;;27.50;99.90;;;;;;5041421;28;20194;-82
2023/06/24 09:09:21;;;;;;;0.10;0.10;;;27.70;99.90;;;;;;5038312;28;20213;-82
2023/06/24 09:11:56;;;;;;;0.10;0.10;;;27.60;99.90;;;;;;5039050;28;20259;-82
2023/06/24 09:14:26;;;;;;;0.10;0.10;;;27.30;99.90;;;;;;5038154;28;20361;-82
2023/06/24 09:16:56;;;;;;;0.10;0.10;;;27.50;99.90;;;;;;5038827;28;20574;-82
2023/06/24 09:19:29;;;;;;;0.10;0.10;;;27.80;99.90;;;;;;5039117;28;20277;-82
2023/06/24 09:22:06;;;;;;;0.10;0.10;;;27.90;99.90;;;;;;5041502;28;20338;-81
2023/06/24 09:24:36;;;;;;;0.10;0.10;;;27.90;99.90;;;;;;5041021;28;20589;-83
2023/06/24 09:27:02;;;;;;;0.10;0.10;;;27.70;99.90;;;;;;5039903;28;20203;-82
2023/06/24 09:29:33;;;;;;;0.10;0.10;;;27.60;99.90;;;;;;5041099;28;20182;-81
2023/06/24 09:32:01;;;;;;;0.10;0.10;;;27.90;99.90;;;;;;5041373;28;20220;-82
2023/06/24 09:34:28;;;;;;;0.10;0.10;;;27.60;99.90;;;;;;5041465;28;20209;-82
2023/06/24 09:36:55;;;;;;;0.10;0.10;;;26.80;99.90;;;;;;5043068;28;20265;-82
2023/06/24 09:39:22;;;;;;;0.10;0.10;;;27.10;99.90;;;;;;5044131;28;20639;-82
2023/06/24 09:41:51;;;;;;;0.10;0.10;;;27.30;99.90;;;;;;5046761;28;20201;-82
2023/06/24 09:44:19;;;;;;;0.10;0.10;;;27.70;99.90;;;;;;5042465;28;20182;-82
2023/06/24 09:46:45;;;;;;;0.10;0.10;;;27.80;99.90;;;;;;5038813;28;20187;-81
2023/06/24 09:49:11;;;;;;;0.10;0.10;;;27.70;99.90;;;;;;5044168;28;20186;-82
2023/06/24 09:51:45;;;;;;;0.10;0.10;;;27.80;99.90;;;;;;5044285;28;20216;-82
2023/06/24 09:54:12;;;;;;;0.10;0.10;;;28.20;99.90;;;;;;5042183;28;20182;-82
2023/06/24 09:56:45;;;;;;;0.10;0.10;;;28.60;99.90;;;;;;5037015;28;20183;-82
2023/06/24 09:59:12;;;;;;;0.10;0.10;;;28.60;99.90;;;;;;5039970;28;20558;-83
2023/06/24 10:01:43;;;;;;;0.10;0.10;;;28.70;99.90;;;;;;5042800;28;20287;-82
2023/06/24 10:04:14;;;;;;;0.10;0.10;;;28.80;99.90;;;;;;5042042;28;20228;-82
2023/06/24 10:06:40;;;;;;;0.10;0.10;;;28.60;99.90;;;;;;5034307;28;20253;-81
2023/06/24 10:09:06;;;;;;;0.10;0.10;;;28.60;99.90;;;;;;5039109;28;20210;-81
2023/06/24 10:11:31;;;;;;;0.10;0.10;;;28.80;99.90;;;;;;5041797;28;20213;-82
2023/06/24 10:13:57;;;;;;;0.10;0.10;;;28.80;99.90;;;;;;5041298;28;20629;-81
2023/06/24 10:16:23;;;;;;;0.10;0.10;;;28.90;99.90;;;;;;5044116;28;20263;-81
2023/06/24 10:18:49;;;;;;;0.10;0.10;;;28.50;99.90;;;;;;5038636;28;20183;-81
2023/06/24 10:21:15;;;;;;;0.10;0.10;;;28.60;99.90;;;;;;5041286;28;20236;-81
2023/06/24 10:23:55;;;;;;;0.10;0.10;;;28.30;99.90;;;;;;5040883;28;20182;-81
2023/06/24 10:26:29;;;;;;;0.10;0.10;;;29.00;99.90;;;;;;5039335;28;20312;-81
2023/06/24 10:29:07;;;;;;;0.10;0.10;;;28.60;99.90;;;;;;5037614;28;20206;-82
2023/06/24 10:31:53;;;;;;;0.10;0.10;;;29.00;99.90;;;;;;5036896;28;20248;-81
2023/06/24 10:34:30;;;;;;;0.10;0.10;;;29.50;99.90;;;;;;5042557;28;20193;-82
2023/06/24 10:36:58;;;;;;;0.10;0.10;;;29.50;99.90;;;;;;5040780;28;20279;-82
2023/06/24 10:39:40;;;;;;;0.10;0.10;;;29.90;99.90;;;;;;5042776;28;20190;-82
2023/06/24 10:42:27;;;;;;;0.10;0.10;;;30.00;99.90;;;;;;5039838;28;20235;-82
2023/06/24 10:44:55;;;;;;;0.10;0.10;;;30.10;99.90;;;;;;5042060;28;20181;-82
2023/06/24 10:47:22;;;;;;;0.10;0.10;;;30.00;99.90;;;;;;5037621;28;20732;-83
2023/06/24 10:49:48;;;;;;;0.10;0.10;;;30.00;99.90;;;;;;5040110;28;20555;-82
2023/06/24 10:52:14;;;;;;;0.10;0.10;;;29.40;99.90;;;;;;5035699;28;20224;-82
2023/06/24 10:54:40;;;;;;;0.10;0.10;;;29.30;99.90;;;;;;5041594;28;20189;-82
2023/06/24 10:57:07;;;;;;;0.10;0.10;;;29.30;99.90;;;;;;5038830;28;20716;-82
2023/06/24 10:59:56;;;;;;;0.10;0.10;;;29.40;99.90;;;;;;5037812;28;20185;-81
2023/06/24 11:02:26;;;;;;;0.10;0.10;;;29.80;99.90;;;;;;5044517;28;20682;-81
2023/06/24 11:04:54;;;;;;;0.10;0.10;;;30.10;99.90;;;;;;5044173;28;20193;-82
2023/06/24 11:07:21;;;;;;;0.10;0.10;;;30.00;99.90;;;;;;5043046;28;21010;-81
2023/06/24 11:09:51;;;;;;;0.10;0.10;;;30.10;99.90;;;;;;5044565;28;21007;-81
2023/06/24 11:12:17;;;;;;;0.10;0.10;;;30.10;99.90;;;;;;5042232;28;20215;-81
2023/06/24 11:14:43;;;;;;;0.10;0.10;;;29.40;99.90;;;;;;5045427;28;20182;-82
2023/06/24 11:17:09;;;;;;;0.10;0.10;;;30.00;99.90;;;;;;5041783;28;20239;-82
2023/06/24 11:19:38;;;;;;;0.10;0.10;;;30.00;99.90;;;;;;5042705;28;20272;-82
2023/06/24 11:22:05;;;;;;;0.10;0.10;;;30.10;99.90;;;;;;5040978;28;20289;-81
2023/06/24 11:24:31;;;;;;;0.10;0.10;;;30.50;99.90;;;;;;5044148;28;20268;-82
2023/06/24 11:26:57;;;;;;;0.10;0.10;;;30.80;99.90;;;;;;5043819;28;20524;-82
2023/06/24 11:29:23;;;;;;;0.10;0.10;;;31.00;99.90;;;;;;5042582;28;20181;-81
2023/06/24 11:31:50;;;;;;;0.10;0.10;;;31.20;99.90;;;;;;5050382;28;20240;-81
2023/06/24 11:34:15;;;;;;;0.10;0.10;;;31.40;99.90;;;;;;5042364;28;20694;-81
2023/06/24 11:36:41;;;;;;;0.13;0.13;;;31.30;99.90;;;;;;5041505;28;20189;-82
2023/06/24 11:39:07;;;;;;;0.10;0.10;;;31.60;99.90;;;;;;5042402;28;20268;-81
2023/06/24 11:41:32;;;;;;;0.10;0.10;;;31.70;99.90;;;;;;5042251;28;20243;-82
2023/06/24 11:43:59;;;;;;;0.10;0.10;;;31.60;99.90;;;;;;5040489;28;20182;-82
2023/06/24 11:46:25;;;;;;;0.10;0.10;;;31.70;99.90;;;;;;5040907;28;20197;-81
2023/06/24 11:48:51;;;;;;;0.10;0.10;;;31.80;99.90;;;;;;5040101;28;20178;-82
2023/06/24 11:51:16;;;;;;;0.10;0.10;;;32.00;99.90;;;;;;5041051;28;20209;-81
2023/06/24 11:53:48;;;;;;;0.10;0.10;;;32.10;99.90;;;;;;5042439;28;20555;-82
2023/06/24 11:56:14;;;;;;;0.10;0.10;;;32.20;99.90;;;;;;5042109;28;20182;-81
2023/06/24 11:58:42;;;;;;;0.10;0.10;;;32.40;99.90;;;;;;5041766;28;20235;-81
2023/06/24 12:01:08;;;;;;;0.10;0.10;;;32.50;99.90;;;;;;5041457;28;20201;-81
2023/06/24 12:03:33;;;;;;;0.10;0.10;;;32.70;99.90;;;;;;5041602;28;20201;-80
2023/06/24 12:06:00;;;;;;;0.10;0.10;;;32.50;99.90;;;;;;5042798;28;21210;-81
2023/06/24 12:08:25;;;;;;;0.10;0.10;;;32.30;99.90;;;;;;5040271;28;20232;-81
2023/06/24 12:10:51;;;;;;;0.10;0.10;;;31.90;99.90;;;;;;5039851;28;20718;-80
2023/06/24 12:13:17;;;;;;;0.10;0.10;;;31.50;99.90;;;;;;5043487;28;20181;-81
2023/06/24 12:15:43;;;;;;;0.10;0.10;;;31.70;99.90;;;;;;5040712;28;20227;-81
2023/06/24 12:18:08;;;;;;;0.30;0.30;;;32.00;99.90;;;;;;5042129;28;20170;-81
2023/06/24 12:20:36;;;;;;;0.10;0.10;;;32.40;99.90;;;;;;5040721;28;20188;-80
2023/06/24 12:23:03;;;;;;;0.10;0.10;;;32.50;99.90;;;;;;5040287;28;20182;-80
2023/06/24 12:25:29;;;;;;;0.10;0.10;;;32.60;99.90;;;;;;5043579;28;20190;-80
2023/06/24 12:27:55;;;;;;;0.10;0.10;;;32.70;99.90;;;;;;5041762;28;20189;-81
2023/06/24 12:30:21;;;;;;;0.10;0.10;;;32.80;99.90;;;;;;5044093;28;20205;-80
2023/06/24 12:32:50;;;;;;;0.10;0.10;;;33.10;99.90;;;;;;5042338;28;20202;-81
2023/06/24 12:35:16;;;;;;;0.10;0.10;;;33.00;99.90;;;;;;5042549;28;20658;-81
2023/06/24 12:37:41;;;;;;;0.10;0.10;;;32.60;99.90;;;;;;5040019;28;20182;-80
2023/06/24 12:40:07;;;;;;;0.10;0.10;;;32.40;99.90;;;;;;5043323;28;20260;-80
2023/06/24 12:42:33;;;;;;;0.10;0.10;;;32.20;99.90;;;;;;5051905;28;20626;-80
2023/06/24 12:45:00;;;;;;;0.10;0.10;;;32.30;99.90;;;;;;5040821;28;20320;-80
2023/06/24 12:47:25;;;;;;;0.10;0.10;;;32.50;99.90;;;;;;5041789;28;20185;-80